sensor_id;sensor_type;location;lat;lon;timestamp;P1;durP1;ratioP1;P2;durP2;ratioP2
80578;SDS011;69939;52.402;6.608;2023-06-14T00:01:05;4.20;;;1.92;;
80578;SDS011;69939;52.402;6.608;2023-06-14T00:03:33;2.03;;;1.50;;
80578;SDS011;69939;52.402;6.608;2023-06-14T00:06:00;2.88;;;1.60;;
80578;SDS011;69939;52.402;6.608;2023-06-14T00:08:26;1.67;;;1.45;;
80578;SDS011;69939;52.402;6.608;2023-06-14T00:10:53;4.68;;;1.95;;
80578;SDS011;69939;52.402;6.608;2023-06-14T00:13:19;3.88;;;1.55;;
80578;SDS011;69939;52.402;6.608;2023-06-14T00:15:46;4.88;;;1.80;;
80578;SDS011;69939;52.402;6.608;2023-06-14T00:18:13;7.97;;;2.28;;
80578;SDS011;69939;52.402;6.608;2023-06-14T00:20:41;2.90;;;2.00;;
80578;SDS011;69939;52.402;6.608;2023-06-14T00:23:11;3.17;;;1.63;;
80578;SDS011;69939;52.402;6.608;2023-06-14T00:25:38;5.80;;;2.65;;
80578;SDS011;69939;52.402;6.608;2023-06-14T00:28:04;1.77;;;1.42;;
80578;SDS011;69939;52.402;6.608;2023-06-14T00:30:31;3.10;;;1.85;;
80578;SDS011;69939;52.402;6.608;2023-06-14T00:32:57;2.47;;;1.92;;
80578;SDS011;69939;52.402;6.608;2023-06-14T00:35:24;2.92;;;1.50;;
80578;SDS011;69939;52.402;6.608;2023-06-14T00:37:52;4.35;;;1.70;;
80578;SDS011;69939;52.402;6.608;2023-06-14T00:40:20;4.35;;;1.90;;
80578;SDS011;69939;52.402;6.608;2023-06-14T00:42:47;4.78;;;2.25;;
80578;SDS011;69939;52.402;6.608;2023-06-14T00:45:13;5.68;;;1.95;;
80578;SDS011;69939;52.402;6.608;2023-06-14T00:47:40;3.05;;;1.73;;
80578;SDS011;69939;52.402;6.608;2023-06-14T00:50:08;1.77;;;1.27;;
80578;SDS011;69939;52.402;6.608;2023-06-14T00:52:36;2.40;;;1.45;;
80578;SDS011;69939;52.402;6.608;2023-06-14T00:55:07;4.53;;;1.98;;
80578;SDS011;69939;52.402;6.608;2023-06-14T00:57:34;2.63;;;1.85;;
80578;SDS011;69939;52.402;6.608;2023-06-14T01:00:02;3.63;;;1.25;;
80578;SDS011;69939;52.402;6.608;2023-06-14T01:02:34;2.63;;;1.63;;
80578;SDS011;69939;52.402;6.608;2023-06-14T01:05:01;2.33;;;1.60;;
80578;SDS011;69939;52.402;6.608;2023-06-14T01:07:31;1.17;;;1.00;;
80578;SDS011;69939;52.402;6.608;2023-06-14T01:10:16;3.50;;;1.52;;
80578;SDS011;69939;52.402;6.608;2023-06-14T01:12:53;2.72;;;1.63;;
80578;SDS011;69939;52.402;6.608;2023-06-14T01:15:25;1.67;;;1.10;;
80578;SDS011;69939;52.402;6.608;2023-06-14T01:17:53;2.97;;;2.20;;
80578;SDS011;69939;52.402;6.608;2023-06-14T01:20:22;2.85;;;2.05;;
80578;SDS011;69939;52.402;6.608;2023-06-14T01:22:57;4.97;;;1.98;;
80578;SDS011;69939;52.402;6.608;2023-06-14T01:25:24;2.20;;;1.70;;
80578;SDS011;69939;52.402;6.608;2023-06-14T01:27:51;4.05;;;2.10;;
80578;SDS011;69939;52.402;6.608;2023-06-14T01:30:21;1.98;;;1.02;;
80578;SDS011;69939;52.402;6.608;2023-06-14T01:32:50;3.58;;;2.05;;
80578;SDS011;69939;52.402;6.608;2023-06-14T01:35:17;4.30;;;1.55;;
80578;SDS011;69939;52.402;6.608;2023-06-14T01:37:44;3.08;;;1.70;;
80578;SDS011;69939;52.402;6.608;2023-06-14T01:40:15;4.07;;;1.75;;
80578;SDS011;69939;52.402;6.608;2023-06-14T01:42:43;5.68;;;1.92;;
80578;SDS011;69939;52.402;6.608;2023-06-14T01:45:12;5.15;;;1.77;;
80578;SDS011;69939;52.402;6.608;2023-06-14T01:47:38;2.78;;;1.48;;
80578;SDS011;69939;52.402;6.608;2023-06-14T01:50:06;2.72;;;1.73;;
80578;SDS011;69939;52.402;6.608;2023-06-14T01:52:33;2.42;;;1.55;;
80578;SDS011;69939;52.402;6.608;2023-06-14T01:55:00;3.33;;;1.70;;
80578;SDS011;69939;52.402;6.608;2023-06-14T01:57:29;4.47;;;2.08;;
80578;SDS011;69939;52.402;6.608;2023-06-14T01:59:55;2.80;;;1.33;;
80578;SDS011;69939;52.402;6.608;2023-06-14T02:02:22;5.47;;;1.60;;
80578;SDS011;69939;52.402;6.608;2023-06-14T02:04:48;4.35;;;1.98;;
80578;SDS011;69939;52.402;6.608;2023-06-14T02:07:15;3.17;;;1.88;;
80578;SDS011;69939;52.402;6.608;2023-06-14T02:09:42;3.45;;;1.80;;
80578;SDS011;69939;52.402;6.608;2023-06-14T02:12:08;3.10;;;2.00;;
80578;SDS011;69939;52.402;6.608;2023-06-14T02:14:37;2.53;;;1.77;;
80578;SDS011;69939;52.402;6.608;2023-06-14T02:17:04;5.68;;;2.38;;
80578;SDS011;69939;52.402;6.608;2023-06-14T02:19:31;2.65;;;1.25;;
80578;SDS011;69939;52.402;6.608;2023-06-14T02:22:00;3.00;;;2.00;;
80578;SDS011;69939;52.402;6.608;2023-06-14T02:24:27;3.30;;;1.60;;
80578;SDS011;69939;52.402;6.608;2023-06-14T02:26:53;3.63;;;2.05;;
80578;SDS011;69939;52.402;6.608;2023-06-14T02:29:20;4.53;;;1.67;;
80578;SDS011;69939;52.402;6.608;2023-06-14T02:31:48;2.45;;;1.13;;
80578;SDS011;69939;52.402;6.608;2023-06-14T02:34:15;2.63;;;1.95;;
80578;SDS011;69939;52.402;6.608;2023-06-14T02:36:44;5.05;;;1.77;;
80578;SDS011;69939;52.402;6.608;2023-06-14T02:39:12;3.75;;;1.60;;
80578;SDS011;69939;52.402;6.608;2023-06-14T02:41:40;3.60;;;1.55;;
80578;SDS011;69939;52.402;6.608;2023-06-14T02:44:06;6.18;;;2.05;;
80578;SDS011;69939;52.402;6.608;2023-06-14T02:46:33;1.85;;;1.23;;
80578;SDS011;69939;52.402;6.608;2023-06-14T02:49:02;3.45;;;1.58;;
80578;SDS011;69939;52.402;6.608;2023-06-14T02:51:28;4.60;;;2.05;;
80578;SDS011;69939;52.402;6.608;2023-06-14T02:53:56;2.67;;;1.58;;
80578;SDS011;69939;52.402;6.608;2023-06-14T02:56:23;3.42;;;1.90;;
80578;SDS011;69939;52.402;6.608;2023-06-14T02:58:51;5.32;;;2.15;;
80578;SDS011;69939;52.402;6.608;2023-06-14T03:01:18;3.40;;;2.03;;
80578;SDS011;69939;52.402;6.608;2023-06-14T03:03:45;4.25;;;1.92;;
80578;SDS011;69939;52.402;6.608;2023-06-14T03:06:13;2.00;;;1.25;;
80578;SDS011;69939;52.402;6.608;2023-06-14T03:08:41;2.75;;;1.65;;
80578;SDS011;69939;52.402;6.608;2023-06-14T03:11:09;3.33;;;1.98;;
80578;SDS011;69939;52.402;6.608;2023-06-14T03:13:37;3.53;;;1.73;;
80578;SDS011;69939;52.402;6.608;2023-06-14T03:16:03;3.13;;;1.77;;
80578;SDS011;69939;52.402;6.608;2023-06-14T03:18:30;2.63;;;1.80;;
80578;SDS011;69939;52.402;6.608;2023-06-14T03:21:00;4.72;;;1.80;;
80578;SDS011;69939;52.402;6.608;2023-06-14T03:23:30;3.40;;;2.13;;
80578;SDS011;69939;52.402;6.608;2023-06-14T03:25:57;2.70;;;1.70;;
80578;SDS011;69939;52.402;6.608;2023-06-14T03:28:23;3.20;;;1.50;;
80578;SDS011;69939;52.402;6.608;2023-06-14T03:30:50;2.63;;;1.92;;
80578;SDS011;69939;52.402;6.608;2023-06-14T03:33:17;5.63;;;2.05;;
80578;SDS011;69939;52.402;6.608;2023-06-14T03:35:46;1.85;;;1.50;;
80578;SDS011;69939;52.402;6.608;2023-06-14T03:38:13;5.22;;;2.38;;
80578;SDS011;69939;52.402;6.608;2023-06-14T03:40:41;5.22;;;1.90;;
80578;SDS011;69939;52.402;6.608;2023-06-14T03:43:08;4.25;;;1.80;;
80578;SDS011;69939;52.402;6.608;2023-06-14T03:45:34;3.03;;;1.90;;
80578;SDS011;69939;52.402;6.608;2023-06-14T03:48:01;4.25;;;2.03;;
80578;SDS011;69939;52.402;6.608;2023-06-14T03:50:27;5.95;;;2.15;;
80578;SDS011;69939;52.402;6.608;2023-06-14T03:52:54;3.65;;;2.08;;
80578;SDS011;69939;52.402;6.608;2023-06-14T03:55:22;3.30;;;2.03;;
80578;SDS011;69939;52.402;6.608;2023-06-14T03:57:51;2.75;;;1.63;;
80578;SDS011;69939;52.402;6.608;2023-06-14T04:00:18;2.75;;;1.80;;
80578;SDS011;69939;52.402;6.608;2023-06-14T04:02:45;5.07;;;1.90;;
80578;SDS011;69939;52.402;6.608;2023-06-14T04:05:11;3.90;;;1.85;;
80578;SDS011;69939;52.402;6.608;2023-06-14T04:07:38;5.45;;;2.17;;
80578;SDS011;69939;52.402;6.608;2023-06-14T04:10:10;3.67;;;2.10;;
80578;SDS011;69939;52.402;6.608;2023-06-14T04:12:38;2.85;;;1.60;;
80578;SDS011;69939;52.402;6.608;2023-06-14T04:15:09;2.35;;;1.90;;
80578;SDS011;69939;52.402;6.608;2023-06-14T04:17:36;3.50;;;2.15;;
80578;SDS011;69939;52.402;6.608;2023-06-14T04:20:03;3.58;;;2.20;;
80578;SDS011;69939;52.402;6.608;2023-06-14T04:22:34;3.22;;;1.88;;
80578;SDS011;69939;52.402;6.608;2023-06-14T04:25:01;5.82;;;2.10;;
80578;SDS011;69939;52.402;6.608;2023-06-14T04:27:28;3.38;;;1.90;;
80578;SDS011;69939;52.402;6.608;2023-06-14T04:29:59;3.20;;;2.28;;
80578;SDS011;69939;52.402;6.608;2023-06-14T04:32:29;4.35;;;1.75;;
80578;SDS011;69939;52.402;6.608;2023-06-14T04:34:58;2.70;;;2.20;;
80578;SDS011;69939;52.402;6.608;2023-06-14T04:37:27;3.00;;;1.80;;
80578;SDS011;69939;52.402;6.608;2023-06-14T04:39:54;5.68;;;2.40;;
80578;SDS011;69939;52.402;6.608;2023-06-14T04:42:21;2.83;;;1.73;;
80578;SDS011;69939;52.402;6.608;2023-06-14T04:44:50;3.22;;;2.55;;
80578;SDS011;69939;52.402;6.608;2023-06-14T04:47:19;4.07;;;2.20;;
80578;SDS011;69939;52.402;6.608;2023-06-14T04:49:50;2.58;;;2.05;;
80578;SDS011;69939;52.402;6.608;2023-06-14T04:52:18;6.63;;;2.05;;
80578;SDS011;69939;52.402;6.608;2023-06-14T04:54:46;4.25;;;2.33;;
80578;SDS011;69939;52.402;6.608;2023-06-14T04:57:12;7.05;;;2.10;;
80578;SDS011;69939;52.402;6.608;2023-06-14T04:59:42;1.67;;;1.52;;
80578;SDS011;69939;52.402;6.608;2023-06-14T05:02:09;5.35;;;2.10;;
80578;SDS011;69939;52.402;6.608;2023-06-14T05:04:36;2.92;;;2.05;;
80578;SDS011;69939;52.402;6.608;2023-06-14T05:07:06;5.05;;;2.25;;
80578;SDS011;69939;52.402;6.608;2023-06-14T05:09:33;2.83;;;2.22;;
80578;SDS011;69939;52.402;6.608;2023-06-14T05:12:00;2.47;;;1.92;;
80578;SDS011;69939;52.402;6.608;2023-06-14T05:14:27;2.60;;;1.92;;
80578;SDS011;69939;52.402;6.608;2023-06-14T05:16:53;2.78;;;2.38;;
80578;SDS011;69939;52.402;6.608;2023-06-14T05:19:20;3.90;;;1.90;;
80578;SDS011;69939;52.402;6.608;2023-06-14T05:21:47;4.10;;;2.13;;
80578;SDS011;69939;52.402;6.608;2023-06-14T05:24:15;3.88;;;2.30;;
80578;SDS011;69939;52.402;6.608;2023-06-14T05:29:09;4.20;;;2.40;;
80578;SDS011;69939;52.402;6.608;2023-06-14T05:31:36;3.10;;;2.38;;
80578;SDS011;69939;52.402;6.608;2023-06-14T05:34:03;2.65;;;1.70;;
80578;SDS011;69939;52.402;6.608;2023-06-14T05:36:30;3.70;;;2.42;;
80578;SDS011;69939;52.402;6.608;2023-06-14T05:38:56;3.33;;;2.15;;
80578;SDS011;69939;52.402;6.608;2023-06-14T05:41:26;5.03;;;2.20;;
80578;SDS011;69939;52.402;6.608;2023-06-14T05:43:53;3.58;;;2.20;;
80578;SDS011;69939;52.402;6.608;2023-06-14T05:46:21;2.97;;;2.28;;
80578;SDS011;69939;52.402;6.608;2023-06-14T05:48:50;4.10;;;2.50;;
80578;SDS011;69939;52.402;6.608;2023-06-14T05:51:17;4.32;;;2.35;;
80578;SDS011;69939;52.402;6.608;2023-06-14T05:53:44;2.92;;;2.33;;
80578;SDS011;69939;52.402;6.608;2023-06-14T05:56:12;2.75;;;2.55;;
80578;SDS011;69939;52.402;6.608;2023-06-14T05:58:41;4.47;;;2.33;;
80578;SDS011;69939;52.402;6.608;2023-06-14T06:01:07;3.75;;;2.53;;
80578;SDS011;69939;52.402;6.608;2023-06-14T06:03:34;4.35;;;2.38;;
80578;SDS011;69939;52.402;6.608;2023-06-14T06:06:00;4.80;;;2.78;;
80578;SDS011;69939;52.402;6.608;2023-06-14T06:08:28;4.45;;;2.40;;
80578;SDS011;69939;52.402;6.608;2023-06-14T06:10:55;2.00;;;1.80;;
80578;SDS011;69939;52.402;6.608;2023-06-14T06:13:21;4.18;;;2.58;;
80578;SDS011;69939;52.402;6.608;2023-06-14T06:15:49;3.25;;;2.40;;
80578;SDS011;69939;52.402;6.608;2023-06-14T06:18:16;2.97;;;2.00;;
80578;SDS011;69939;52.402;6.608;2023-06-14T06:20:43;3.28;;;2.17;;
80578;SDS011;69939;52.402;6.608;2023-06-14T06:23:10;3.35;;;2.28;;
80578;SDS011;69939;52.402;6.608;2023-06-14T06:25:37;3.00;;;2.28;;
80578;SDS011;69939;52.402;6.608;2023-06-14T06:28:03;3.08;;;2.05;;
80578;SDS011;69939;52.402;6.608;2023-06-14T06:30:30;3.00;;;2.28;;
80578;SDS011;69939;52.402;6.608;2023-06-14T06:32:58;3.20;;;2.45;;
80578;SDS011;69939;52.402;6.608;2023-06-14T06:35:24;2.60;;;2.40;;
80578;SDS011;69939;52.402;6.608;2023-06-14T06:37:51;3.58;;;2.20;;
80578;SDS011;69939;52.402;6.608;2023-06-14T06:40:18;2.40;;;2.20;;
80578;SDS011;69939;52.402;6.608;2023-06-14T06:42:44;3.97;;;2.33;;
80578;SDS011;69939;52.402;6.608;2023-06-14T06:45:11;2.47;;;1.88;;
80578;SDS011;69939;52.402;6.608;2023-06-14T06:47:38;2.63;;;2.05;;
80578;SDS011;69939;52.402;6.608;2023-06-14T06:50:07;2.65;;;2.28;;
80578;SDS011;69939;52.402;6.608;2023-06-14T06:52:34;2.13;;;2.00;;
80578;SDS011;69939;52.402;6.608;2023-06-14T06:55:01;2.22;;;2.03;;
80578;SDS011;69939;52.402;6.608;2023-06-14T06:57:28;2.22;;;2.03;;
80578;SDS011;69939;52.402;6.608;2023-06-14T06:59:55;3.03;;;2.25;;
80578;SDS011;69939;52.402;6.608;2023-06-14T07:02:22;2.47;;;2.28;;
80578;SDS011;69939;52.402;6.608;2023-06-14T07:04:48;2.15;;;2.05;;
80578;SDS011;69939;52.402;6.608;2023-06-14T07:07:19;1.98;;;1.88;;
80578;SDS011;69939;52.402;6.608;2023-06-14T07:09:45;2.75;;;2.25;;
80578;SDS011;69939;52.402;6.608;2023-06-14T07:12:12;4.70;;;2.25;;
80578;SDS011;69939;52.402;6.608;2023-06-14T07:14:40;3.58;;;2.55;;
80578;SDS011;69939;52.402;6.608;2023-06-14T07:17:08;2.25;;;1.83;;
80578;SDS011;69939;52.402;6.608;2023-06-14T07:19:34;3.35;;;2.03;;
80578;SDS011;69939;52.402;6.608;2023-06-14T07:22:01;1.75;;;1.65;;
80578;SDS011;69939;52.402;6.608;2023-06-14T07:24:29;2.88;;;2.08;;
80578;SDS011;69939;52.402;6.608;2023-06-14T07:26:55;3.05;;;1.80;;
80578;SDS011;69939;52.402;6.608;2023-06-14T07:29:22;3.00;;;2.03;;
80578;SDS011;69939;52.402;6.608;2023-06-14T07:31:48;2.22;;;1.92;;
80578;SDS011;69939;52.402;6.608;2023-06-14T07:34:15;2.38;;;1.83;;
80578;SDS011;69939;52.402;6.608;2023-06-14T07:36:42;3.20;;;2.50;;
80578;SDS011;69939;52.402;6.608;2023-06-14T07:39:10;6.07;;;1.73;;
80578;SDS011;69939;52.402;6.608;2023-06-14T07:41:38;3.72;;;1.70;;
80578;SDS011;69939;52.402;6.608;2023-06-14T07:44:05;4.47;;;1.95;;
80578;SDS011;69939;52.402;6.608;2023-06-14T07:46:31;2.13;;;1.75;;
80578;SDS011;69939;52.402;6.608;2023-06-14T07:48:59;1.95;;;1.60;;
80578;SDS011;69939;52.402;6.608;2023-06-14T07:51:26;2.47;;;2.05;;
80578;SDS011;69939;52.402;6.608;2023-06-14T07:53:53;2.95;;;1.45;;
80578;SDS011;69939;52.402;6.608;2023-06-14T07:56:20;2.97;;;2.05;;
80578;SDS011;69939;52.402;6.608;2023-06-14T07:58:47;2.10;;;1.85;;
80578;SDS011;69939;52.402;6.608;2023-06-14T08:01:14;1.90;;;1.80;;
80578;SDS011;69939;52.402;6.608;2023-06-14T08:03:41;2.13;;;1.65;;
80578;SDS011;69939;52.402;6.608;2023-06-14T08:06:08;3.65;;;2.05;;
80578;SDS011;69939;52.402;6.608;2023-06-14T08:08:35;1.98;;;1.83;;
80578;SDS011;69939;52.402;6.608;2023-06-14T08:11:01;3.15;;;1.70;;
80578;SDS011;69939;52.402;6.608;2023-06-14T08:13:28;2.42;;;2.00;;
80578;SDS011;69939;52.402;6.608;2023-06-14T08:15:56;2.53;;;1.85;;
80578;SDS011;69939;52.402;6.608;2023-06-14T08:18:26;2.90;;;2.17;;
80578;SDS011;69939;52.402;6.608;2023-06-14T08:20:53;5.45;;;2.58;;
80578;SDS011;69939;52.402;6.608;2023-06-14T08:23:19;2.67;;;2.00;;
80578;SDS011;69939;52.402;6.608;2023-06-14T08:25:46;3.10;;;1.70;;
80578;SDS011;69939;52.402;6.608;2023-06-14T08:28:13;3.00;;;1.70;;
80578;SDS011;69939;52.402;6.608;2023-06-14T08:30:40;1.88;;;1.77;;
80578;SDS011;69939;52.402;6.608;2023-06-14T08:33:09;2.50;;;1.40;;
80578;SDS011;69939;52.402;6.608;2023-06-14T08:35:35;3.45;;;2.13;;
80578;SDS011;69939;52.402;6.608;2023-06-14T08:38:04;4.30;;;1.80;;
80578;SDS011;69939;52.402;6.608;2023-06-14T08:40:31;2.97;;;1.80;;
80578;SDS011;69939;52.402;6.608;2023-06-14T08:43:02;2.72;;;1.20;;
80578;SDS011;69939;52.402;6.608;2023-06-14T08:45:29;1.88;;;1.60;;
80578;SDS011;69939;52.402;6.608;2023-06-14T08:47:56;1.60;;;1.50;;
80578;SDS011;69939;52.402;6.608;2023-06-14T08:52:55;1.52;;;1.42;;
80578;SDS011;69939;52.402;6.608;2023-06-14T08:55:25;2.78;;;1.70;;
80578;SDS011;69939;52.402;6.608;2023-06-14T08:57:54;1.50;;;1.30;;
80578;SDS011;69939;52.402;6.608;2023-06-14T09:00:23;1.50;;;1.40;;
80578;SDS011;69939;52.402;6.608;2023-06-14T09:02:49;3.00;;;1.65;;
80578;SDS011;69939;52.402;6.608;2023-06-14T09:05:20;1.88;;;1.55;;
80578;SDS011;69939;52.402;6.608;2023-06-14T09:07:50;2.40;;;1.50;;
80578;SDS011;69939;52.402;6.608;2023-06-14T09:10:17;2.38;;;1.52;;
80578;SDS011;69939;52.402;6.608;2023-06-14T09:12:44;1.60;;;1.38;;
80578;SDS011;69939;52.402;6.608;2023-06-14T09:15:12;1.85;;;1.42;;
80578;SDS011;69939;52.402;6.608;2023-06-14T09:17:39;2.83;;;1.58;;
80578;SDS011;69939;52.402;6.608;2023-06-14T09:20:07;2.13;;;1.40;;
80578;SDS011;69939;52.402;6.608;2023-06-14T09:22:35;2.10;;;1.90;;
80578;SDS011;69939;52.402;6.608;2023-06-14T09:25:04;2.35;;;1.70;;
80578;SDS011;69939;52.402;6.608;2023-06-14T09:27:32;2.28;;;1.40;;
80578;SDS011;69939;52.402;6.608;2023-06-14T09:30:00;2.42;;;1.85;;
80578;SDS011;69939;52.402;6.608;2023-06-14T09:32:27;3.22;;;1.70;;
80578;SDS011;69939;52.402;6.608;2023-06-14T09:34:54;2.80;;;1.70;;
80578;SDS011;69939;52.402;6.608;2023-06-14T09:37:28;2.35;;;1.17;;
80578;SDS011;69939;52.402;6.608;2023-06-14T09:39:55;1.70;;;1.52;;
80578;SDS011;69939;52.402;6.608;2023-06-14T09:42:25;2.00;;;1.60;;
80578;SDS011;69939;52.402;6.608;2023-06-14T09:44:54;3.25;;;1.83;;
80578;SDS011;69939;52.402;6.608;2023-06-14T09:47:21;1.88;;;1.10;;
80578;SDS011;69939;52.402;6.608;2023-06-14T09:49:49;1.75;;;1.33;;
80578;SDS011;69939;52.402;6.608;2023-06-14T09:52:19;1.30;;;1.20;;
80578;SDS011;69939;52.402;6.608;2023-06-14T09:54:47;2.75;;;1.50;;
80578;SDS011;69939;52.402;6.608;2023-06-14T09:57:15;4.00;;;1.50;;
80578;SDS011;69939;52.402;6.608;2023-06-14T09:59:44;2.42;;;1.17;;
80578;SDS011;69939;52.402;6.608;2023-06-14T10:02:18;2.47;;;1.50;;
80578;SDS011;69939;52.402;6.608;2023-06-14T10:04:50;1.58;;;1.48;;
80578;SDS011;69939;52.402;6.608;2023-06-14T10:07:26;2.10;;;1.60;;
80578;SDS011;69939;52.402;6.608;2023-06-14T10:09:55;2.67;;;1.50;;
80578;SDS011;69939;52.402;6.608;2023-06-14T10:12:22;3.33;;;1.75;;
80578;SDS011;69939;52.402;6.608;2023-06-14T10:14:50;2.38;;;1.35;;
80578;SDS011;69939;52.402;6.608;2023-06-14T10:17:20;3.08;;;1.40;;
80578;SDS011;69939;52.402;6.608;2023-06-14T10:19:54;3.00;;;1.67;;
80578;SDS011;69939;52.402;6.608;2023-06-14T10:22:26;1.98;;;1.65;;
80578;SDS011;69939;52.402;6.608;2023-06-14T10:24:58;2.30;;;1.48;;
80578;SDS011;69939;52.402;6.608;2023-06-14T10:27:25;1.88;;;1.60;;
80578;SDS011;69939;52.402;6.608;2023-06-14T10:35:29;2.88;;;1.40;;
80578;SDS011;69939;52.402;6.608;2023-06-14T10:38:05;1.67;;;1.25;;
80578;SDS011;69939;52.402;6.608;2023-06-14T10:40:32;2.42;;;1.40;;
80578;SDS011;69939;52.402;6.608;2023-06-14T10:43:00;1.98;;;1.55;;
80578;SDS011;69939;52.402;6.608;2023-06-14T10:45:28;2.03;;;1.58;;
80578;SDS011;69939;52.402;6.608;2023-06-14T10:47:56;2.67;;;1.73;;
80578;SDS011;69939;52.402;6.608;2023-06-14T10:50:27;2.50;;;1.60;;
80578;SDS011;69939;52.402;6.608;2023-06-14T10:52:54;1.85;;;1.30;;
80578;SDS011;69939;52.402;6.608;2023-06-14T10:55:21;3.05;;;1.58;;
80578;SDS011;69939;52.402;6.608;2023-06-14T10:57:50;1.63;;;1.40;;
80578;SDS011;69939;52.402;6.608;2023-06-14T11:00:21;2.75;;;1.42;;
80578;SDS011;69939;52.402;6.608;2023-06-14T11:06:12;2.30;;;1.67;;
80578;SDS011;69939;52.402;6.608;2023-06-14T11:11:25;2.30;;;1.52;;
80578;SDS011;69939;52.402;6.608;2023-06-14T11:13:59;2.72;;;1.35;;
80578;SDS011;69939;52.402;6.608;2023-06-14T11:16:29;2.17;;;1.40;;
80578;SDS011;69939;52.402;6.608;2023-06-14T11:18:58;2.38;;;1.13;;
80578;SDS011;69939;52.402;6.608;2023-06-14T11:21:28;2.33;;;1.50;;
80578;SDS011;69939;52.402;6.608;2023-06-14T11:23:56;3.28;;;1.30;;
80578;SDS011;69939;52.402;6.608;2023-06-14T11:26:26;1.95;;;1.00;;
80578;SDS011;69939;52.402;6.608;2023-06-14T11:28:56;1.33;;;1.23;;
80578;SDS011;69939;52.402;6.608;2023-06-14T11:31:27;1.70;;;1.27;;
80578;SDS011;69939;52.402;6.608;2023-06-14T11:33:55;1.15;;;1.05;;
80578;SDS011;69939;52.402;6.608;2023-06-14T11:36:26;2.72;;;1.20;;
80578;SDS011;69939;52.402;6.608;2023-06-14T11:38:58;3.60;;;0.90;;
80578;SDS011;69939;52.402;6.608;2023-06-14T11:41:31;1.60;;;1.33;;
80578;SDS011;69939;52.402;6.608;2023-06-14T11:43:59;1.52;;;1.23;;
80578;SDS011;69939;52.402;6.608;2023-06-14T11:46:27;1.48;;;1.23;;
80578;SDS011;69939;52.402;6.608;2023-06-14T11:48:54;1.33;;;1.20;;
80578;SDS011;69939;52.402;6.608;2023-06-14T11:51:20;1.85;;;1.42;;
80578;SDS011;69939;52.402;6.608;2023-06-14T11:53:49;1.42;;;1.33;;
80578;SDS011;69939;52.402;6.608;2023-06-14T11:56:15;1.58;;;1.35;;
80578;SDS011;69939;52.402;6.608;2023-06-14T11:58:42;1.83;;;1.08;;
80578;SDS011;69939;52.402;6.608;2023-06-14T12:01:09;2.22;;;1.10;;
80578;SDS011;69939;52.402;6.608;2023-06-14T12:03:35;1.50;;;1.40;;
80578;SDS011;69939;52.402;6.608;2023-06-14T12:06:04;1.70;;;1.40;;
80578;SDS011;69939;52.402;6.608;2023-06-14T12:08:33;2.28;;;1.40;;
80578;SDS011;69939;52.402;6.608;2023-06-14T12:11:06;1.25;;;0.98;;
80578;SDS011;69939;52.402;6.608;2023-06-14T12:13:34;2.35;;;1.15;;
80578;SDS011;69939;52.402;6.608;2023-06-14T12:16:04;1.50;;;1.17;;
80578;SDS011;69939;52.402;6.608;2023-06-14T12:18:34;4.18;;;1.30;;
80578;SDS011;69939;52.402;6.608;2023-06-14T12:21:02;1.83;;;1.17;;
80578;SDS011;69939;52.402;6.608;2023-06-14T12:23:43;2.47;;;1.10;;
80578;SDS011;69939;52.402;6.608;2023-06-14T12:28:40;2.47;;;1.10;;
80578;SDS011;69939;52.402;6.608;2023-06-14T12:31:08;2.72;;;1.38;;
80578;SDS011;69939;52.402;6.608;2023-06-14T12:33:34;2.35;;;1.33;;
80578;SDS011;69939;52.402;6.608;2023-06-14T12:36:03;1.88;;;1.27;;
80578;SDS011;69939;52.402;6.608;2023-06-14T12:38:30;1.92;;;1.65;;
80578;SDS011;69939;52.402;6.608;2023-06-14T12:40:56;2.22;;;1.05;;
80578;SDS011;69939;52.402;6.608;2023-06-14T12:43:24;2.35;;;1.40;;
80578;SDS011;69939;52.402;6.608;2023-06-14T12:45:51;2.10;;;1.13;;
80578;SDS011;69939;52.402;6.608;2023-06-14T12:48:18;1.48;;;0.80;;
80578;SDS011;69939;52.402;6.608;2023-06-14T12:50:45;2.17;;;1.00;;
80578;SDS011;69939;52.402;6.608;2023-06-14T12:53:11;1.60;;;1.17;;
80578;SDS011;69939;52.402;6.608;2023-06-14T12:55:38;1.10;;;0.93;;
80578;SDS011;69939;52.402;6.608;2023-06-14T12:58:05;1.65;;;1.17;;
80578;SDS011;69939;52.402;6.608;2023-06-14T13:00:33;1.70;;;1.00;;
80578;SDS011;69939;52.402;6.608;2023-06-14T13:02:59;1.25;;;1.15;;
80578;SDS011;69939;52.402;6.608;2023-06-14T13:05:26;1.40;;;1.15;;
80578;SDS011;69939;52.402;6.608;2023-06-14T13:07:53;1.40;;;0.90;;
80578;SDS011;69939;52.402;6.608;2023-06-14T13:10:20;2.13;;;1.35;;
80578;SDS011;69939;52.402;6.608;2023-06-14T13:12:46;1.48;;;1.10;;
80578;SDS011;69939;52.402;6.608;2023-06-14T13:15:13;2.80;;;1.10;;
80578;SDS011;69939;52.402;6.608;2023-06-14T13:17:41;1.58;;;1.38;;
80578;SDS011;69939;52.402;6.608;2023-06-14T13:20:09;3.60;;;1.70;;
80578;SDS011;69939;52.402;6.608;2023-06-14T13:22:36;2.78;;;1.65;;
80578;SDS011;69939;52.402;6.608;2023-06-14T13:25:04;1.33;;;1.10;;
80578;SDS011;69939;52.402;6.608;2023-06-14T13:27:32;4.55;;;1.05;;
80578;SDS011;69939;52.402;6.608;2023-06-14T13:29:58;1.20;;;1.10;;
80578;SDS011;69939;52.402;6.608;2023-06-14T13:32:25;0.98;;;0.88;;
80578;SDS011;69939;52.402;6.608;2023-06-14T13:34:53;1.63;;;1.23;;
80578;SDS011;69939;52.402;6.608;2023-06-14T13:37:21;2.80;;;1.27;;
80578;SDS011;69939;52.402;6.608;2023-06-14T13:39:47;1.42;;;1.30;;
80578;SDS011;69939;52.402;6.608;2023-06-14T13:42:14;1.40;;;1.10;;
80578;SDS011;69939;52.402;6.608;2023-06-14T13:44:41;1.60;;;1.20;;
80578;SDS011;69939;52.402;6.608;2023-06-14T13:47:07;1.30;;;1.10;;
80578;SDS011;69939;52.402;6.608;2023-06-14T13:49:34;1.92;;;1.00;;
80578;SDS011;69939;52.402;6.608;2023-06-14T13:52:02;1.02;;;0.90;;
80578;SDS011;69939;52.402;6.608;2023-06-14T13:54:29;1.25;;;1.15;;
80578;SDS011;69939;52.402;6.608;2023-06-14T13:56:56;1.42;;;1.33;;
80578;SDS011;69939;52.402;6.608;2023-06-14T13:59:22;1.63;;;1.25;;
80578;SDS011;69939;52.402;6.608;2023-06-14T14:01:49;1.65;;;1.10;;
80578;SDS011;69939;52.402;6.608;2023-06-14T14:04:16;1.17;;;1.08;;
80578;SDS011;69939;52.402;6.608;2023-06-14T14:06:43;1.38;;;0.98;;
80578;SDS011;69939;52.402;6.608;2023-06-14T14:09:11;2.10;;;1.10;;
80578;SDS011;69939;52.402;6.608;2023-06-14T14:11:38;1.75;;;1.20;;
80578;SDS011;69939;52.402;6.608;2023-06-14T14:14:06;1.80;;;0.95;;
80578;SDS011;69939;52.402;6.608;2023-06-14T14:16:33;1.02;;;0.93;;
80578;SDS011;69939;52.402;6.608;2023-06-14T14:19:00;1.40;;;1.30;;
80578;SDS011;69939;52.402;6.608;2023-06-14T14:21:27;1.60;;;1.35;;
80578;SDS011;69939;52.402;6.608;2023-06-14T14:23:53;2.65;;;1.10;;
80578;SDS011;69939;52.402;6.608;2023-06-14T14:26:21;1.42;;;1.13;;
80578;SDS011;69939;52.402;6.608;2023-06-14T14:28:50;1.63;;;1.10;;
80578;SDS011;69939;52.402;6.608;2023-06-14T14:31:17;1.55;;;1.00;;
80578;SDS011;69939;52.402;6.608;2023-06-14T14:33:44;1.15;;;0.98;;
80578;SDS011;69939;52.402;6.608;2023-06-14T14:36:10;1.10;;;1.00;;
80578;SDS011;69939;52.402;6.608;2023-06-14T14:38:38;2.22;;;1.30;;
80578;SDS011;69939;52.402;6.608;2023-06-14T14:41:05;1.52;;;1.13;;
80578;SDS011;69939;52.402;6.608;2023-06-14T14:43:35;1.20;;;1.10;;
80578;SDS011;69939;52.402;6.608;2023-06-14T14:46:01;3.30;;;1.30;;
80578;SDS011;69939;52.402;6.608;2023-06-14T14:48:28;1.10;;;1.00;;
80578;SDS011;69939;52.402;6.608;2023-06-14T14:50:55;1.50;;;1.00;;
80578;SDS011;69939;52.402;6.608;2023-06-14T14:53:22;2.05;;;1.30;;
80578;SDS011;69939;52.402;6.608;2023-06-14T14:55:49;1.30;;;1.20;;
80578;SDS011;69939;52.402;6.608;2023-06-14T14:58:15;1.95;;;1.20;;
80578;SDS011;69939;52.402;6.608;2023-06-14T15:00:44;1.10;;;0.93;;
80578;SDS011;69939;52.402;6.608;2023-06-14T15:03:11;0.85;;;0.77;;
80578;SDS011;69939;52.402;6.608;2023-06-14T15:05:37;1.08;;;0.98;;
80578;SDS011;69939;52.402;6.608;2023-06-14T15:08:04;2.55;;;1.30;;
80578;SDS011;69939;52.402;6.608;2023-06-14T15:10:35;1.17;;;1.08;;